sensor_id;sensor_type;location;lat;lon;timestamp;pressure;altitude;pressure_sealevel;temperature;humidity
84671;BME280;74898;42.716;23.624;2024-03-02T00:00:10;94305.19;;;6.33;82.65
84671;BME280;74898;42.716;23.624;2024-03-02T00:02:46;94319.22;;;6.37;81.80
84671;BME280;74898;42.716;23.624;2024-03-02T00:05:13;94317.28;;;6.39;81.60
84671;BME280;74898;42.716;23.624;2024-03-02T00:07:45;94310.94;;;6.35;81.27
84671;BME280;74898;42.716;23.624;2024-03-02T00:10:14;94315.66;;;6.31;83.35
84671;BME280;74898;42.716;23.624;2024-03-02T00:12:42;94316.66;;;6.30;83.38
84671;BME280;74898;42.716;23.624;2024-03-02T00:15:43;94310.72;;;6.30;82.50
84671;BME280;74898;42.716;23.624;2024-03-02T00:18:11;94308.16;;;6.30;83.52
84671;BME280;74898;42.716;23.624;2024-03-02T00:20:38;94300.38;;;6.23;82.78
84671;BME280;74898;42.716;23.624;2024-03-02T00:23:06;94302.34;;;6.21;83.31
84671;BME280;74898;42.716;23.624;2024-03-02T00:25:42;94306.50;;;6.22;84.16
84671;BME280;74898;42.716;23.624;2024-03-02T00:28:17;94302.75;;;6.18;83.62
84671;BME280;74898;42.716;23.624;2024-03-02T00:33:10;94301.13;;;6.17;83.94
84671;BME280;74898;42.716;23.624;2024-03-02T00:35:35;94302.34;;;6.21;83.71
84671;BME280;74898;42.716;23.624;2024-03-02T00:38:07;94294.63;;;6.21;84.33
84671;BME280;74898;42.716;23.624;2024-03-02T00:40:33;94300.63;;;6.28;83.10
84671;BME280;74898;42.716;23.624;2024-03-02T00:42:59;94296.81;;;6.24;84.06
84671;BME280;74898;42.716;23.624;2024-03-02T00:45:25;94287.34;;;6.24;82.18
84671;BME280;74898;42.716;23.624;2024-03-02T00:47:52;94287.16;;;6.26;83.12
84671;BME280;74898;42.716;23.624;2024-03-02T00:50:18;94295.03;;;6.18;82.89
84671;BME280;74898;42.716;23.624;2024-03-02T00:52:44;94295.47;;;6.28;83.78
84671;BME280;74898;42.716;23.624;2024-03-02T00:55:10;94282.41;;;6.23;83.45
84671;BME280;74898;42.716;23.624;2024-03-02T00:57:37;94287.59;;;6.36;82.17
84671;BME280;74898;42.716;23.624;2024-03-02T01:00:03;94274.94;;;6.41;81.96
84671;BME280;74898;42.716;23.624;2024-03-02T01:02:33;94282.06;;;6.39;81.19
84671;BME280;74898;42.716;23.624;2024-03-02T01:04:59;94272.59;;;6.40;82.08
84671;BME280;74898;42.716;23.624;2024-03-02T01:07:25;94272.81;;;6.45;81.92
84671;BME280;74898;42.716;23.624;2024-03-02T01:09:50;94269.41;;;6.44;82.41
84671;BME280;74898;42.716;23.624;2024-03-02T01:12:16;94269.41;;;6.44;82.99
84671;BME280;74898;42.716;23.624;2024-03-02T01:14:41;94267.84;;;6.43;81.51
84671;BME280;74898;42.716;23.624;2024-03-02T01:17:07;94264.44;;;6.36;82.32
84671;BME280;74898;42.716;23.624;2024-03-02T01:19:32;94266.25;;;6.42;82.54
84671;BME280;74898;42.716;23.624;2024-03-02T01:21:58;94262.53;;;6.52;81.74
84671;BME280;74898;42.716;23.624;2024-03-02T01:24:24;94265.47;;;6.48;82.37
84671;BME280;74898;42.716;23.624;2024-03-02T01:26:49;94262.13;;;6.48;81.10
84671;BME280;74898;42.716;23.624;2024-03-02T01:29:15;94261.34;;;6.47;81.16
84671;BME280;74898;42.716;23.624;2024-03-02T01:31:41;94264.50;;;6.49;81.96
84671;BME280;74898;42.716;23.624;2024-03-02T01:34:08;94264.09;;;6.46;81.30
84671;BME280;74898;42.716;23.624;2024-03-02T01:36:33;94263.47;;;6.44;82.21
84671;BME280;74898;42.716;23.624;2024-03-02T01:38:59;94268.44;;;6.45;82.00
84671;BME280;74898;42.716;23.624;2024-03-02T01:41:25;94265.09;;;6.45;82.69
84671;BME280;74898;42.716;23.624;2024-03-02T01:43:50;94269.66;;;6.49;80.67
84671;BME280;74898;42.716;23.624;2024-03-02T01:46:16;94267.31;;;6.55;80.50
84671;BME280;74898;42.716;23.624;2024-03-02T01:48:41;94263.56;;;6.57;81.74
84671;BME280;74898;42.716;23.624;2024-03-02T01:51:07;94266.13;;;6.57;80.14
84671;BME280;74898;42.716;23.624;2024-03-02T01:53:34;94261.94;;;6.56;81.74
84671;BME280;74898;42.716;23.624;2024-03-02T01:55:59;94255.22;;;6.62;79.82
84671;BME280;74898;42.716;23.624;2024-03-02T01:58:26;94256.81;;;6.63;81.05
84671;BME280;74898;42.716;23.624;2024-03-02T02:00:52;94257.97;;;6.54;81.42
84671;BME280;74898;42.716;23.624;2024-03-02T02:03:18;94254.44;;;6.55;82.07
84671;BME280;74898;42.716;23.624;2024-03-02T02:05:43;94251.66;;;6.49;81.53
84671;BME280;74898;42.716;23.624;2024-03-02T02:08:09;94252.41;;;6.43;80.96
84671;BME280;74898;42.716;23.624;2024-03-02T02:10:34;94255.97;;;6.42;81.77
84671;BME280;74898;42.716;23.624;2024-03-02T02:13:00;94250.22;;;6.47;81.84
84671;BME280;74898;42.716;23.624;2024-03-02T02:15:29;94246.28;;;6.38;81.28
84671;BME280;74898;42.716;23.624;2024-03-02T02:17:55;94246.06;;;6.39;81.07
84671;BME280;74898;42.716;23.624;2024-03-02T02:20:21;94250.22;;;6.40;81.37
84671;BME280;74898;42.716;23.624;2024-03-02T02:22:57;94245.66;;;6.36;82.12
84671;BME280;74898;42.716;23.624;2024-03-02T02:25:23;94245.25;;;6.32;83.38
84671;BME280;74898;42.716;23.624;2024-03-02T02:27:48;94250.41;;;6.32;82.68
84671;BME280;74898;42.716;23.624;2024-03-02T02:30:20;94251.59;;;6.36;82.35
84671;BME280;74898;42.716;23.624;2024-03-02T02:32:46;94247.84;;;6.39;81.67
84671;BME280;74898;42.716;23.624;2024-03-02T02:35:11;94251.19;;;6.33;83.17
84671;BME280;74898;42.716;23.624;2024-03-02T02:37:38;94247.63;;;6.34;82.89
84671;BME280;74898;42.716;23.624;2024-03-02T02:40:04;94243.66;;;6.31;81.62
84671;BME280;74898;42.716;23.624;2024-03-02T02:42:30;94248.81;;;6.31;82.63
84671;BME280;74898;42.716;23.624;2024-03-02T02:44:55;94248.19;;;6.29;83.60
84671;BME280;74898;42.716;23.624;2024-03-02T02:47:21;94244.44;;;6.25;83.08
84671;BME280;74898;42.716;23.624;2024-03-02T02:49:46;94252.34;;;6.23;82.78
84671;BME280;74898;42.716;23.624;2024-03-02T02:52:12;94250.34;;;6.19;83.42
84671;BME280;74898;42.716;23.624;2024-03-02T02:54:38;94263.19;;;6.19;83.07
84671;BME280;74898;42.716;23.624;2024-03-02T02:57:03;94250.38;;;6.25;83.98
84671;BME280;74898;42.716;23.624;2024-03-02T02:59:29;94248.75;;;6.18;83.28
84671;BME280;74898;42.716;23.624;2024-03-02T03:01:54;94247.16;;;6.17;83.95
84671;BME280;74898;42.716;23.624;2024-03-02T03:04:20;94244.16;;;6.06;84.39
84671;BME280;74898;42.716;23.624;2024-03-02T03:06:45;94243.97;;;6.08;84.36
84671;BME280;74898;42.716;23.624;2024-03-02T03:09:11;94250.09;;;6.07;84.79
84671;BME280;74898;42.716;23.624;2024-03-02T03:11:37;94245.97;;;6.13;83.10
84671;BME280;74898;42.716;23.624;2024-03-02T03:14:02;94252.69;;;6.07;83.31
84671;BME280;74898;42.716;23.624;2024-03-02T03:16:29;94244.97;;;6.14;84.23
84671;BME280;74898;42.716;23.624;2024-03-02T03:18:54;94249.72;;;6.17;83.35
84671;BME280;74898;42.716;23.624;2024-03-02T03:21:20;94251.72;;;6.21;82.72
84671;BME280;74898;42.716;23.624;2024-03-02T03:23:45;94248.59;;;6.26;83.23
84671;BME280;74898;42.716;23.624;2024-03-02T03:26:11;94252.50;;;6.22;83.71
84671;BME280;74898;42.716;23.624;2024-03-02T03:28:36;94255.50;;;6.25;84.14
84671;BME280;74898;42.716;23.624;2024-03-02T03:31:02;94255.91;;;6.22;84.17
84671;BME280;74898;42.716;23.624;2024-03-02T03:33:28;94249.81;;;6.30;83.71
84671;BME280;74898;42.716;23.624;2024-03-02T03:35:54;94249.19;;;6.28;83.54
84671;BME280;74898;42.716;23.624;2024-03-02T03:38:19;94258.31;;;6.31;82.33
84671;BME280;74898;42.716;23.624;2024-03-02T03:40:45;94260.09;;;6.37;82.62
84671;BME280;74898;42.716;23.624;2024-03-02T03:43:10;94251.16;;;6.26;82.63
84671;BME280;74898;42.716;23.624;2024-03-02T03:45:36;94264.22;;;6.31;82.21
84671;BME280;74898;42.716;23.624;2024-03-02T03:48:02;94266.41;;;6.34;84.54
84671;BME280;74898;42.716;23.624;2024-03-02T03:50:28;94261.66;;;6.24;84.66
84671;BME280;74898;42.716;23.624;2024-03-02T03:52:53;94260.22;;;6.22;84.72
84671;BME280;74898;42.716;23.624;2024-03-02T03:55:19;94255.47;;;6.12;84.36
84671;BME280;74898;42.716;23.624;2024-03-02T03:57:44;94251.28;;;6.11;85.31
84671;BME280;74898;42.716;23.624;2024-03-02T04:00:10;94255.03;;;6.09;86.69
84671;BME280;74898;42.716;23.624;2024-03-02T04:02:37;94255.81;;;6.02;86.87
84671;BME280;74898;42.716;23.624;2024-03-02T04:05:03;94249.28;;;6.06;87.24
84671;BME280;74898;42.716;23.624;2024-03-02T04:07:30;94256.22;;;6.06;87.15
84671;BME280;74898;42.716;23.624;2024-03-02T04:09:55;94253.81;;;5.98;86.91
84671;BME280;74898;42.716;23.624;2024-03-02T04:12:21;94255.34;;;5.92;87.81
84671;BME280;74898;42.716;23.624;2024-03-02T04:14:47;94255.59;;;5.97;88.15
84671;BME280;74898;42.716;23.624;2024-03-02T04:17:12;94252.03;;;5.98;87.81
84671;BME280;74898;42.716;23.624;2024-03-02T04:19:38;94254.00;;;5.96;88.32
84671;BME280;74898;42.716;23.624;2024-03-02T04:22:04;94249.06;;;5.95;88.17
84671;BME280;74898;42.716;23.624;2024-03-02T04:24:29;94254.03;;;6.03;88.33
84671;BME280;74898;42.716;23.624;2024-03-02T04:26:55;94247.91;;;6.04;87.70
84671;BME280;74898;42.716;23.624;2024-03-02T04:29:21;94256.25;;;6.13;87.15
84671;BME280;74898;42.716;23.624;2024-03-02T04:31:46;94261.78;;;6.10;88.40
84671;BME280;74898;42.716;23.624;2024-03-02T04:34:12;94254.44;;;6.06;89.11
84671;BME280;74898;42.716;23.624;2024-03-02T04:36:37;94253.47;;;6.08;87.82
84671;BME280;74898;42.716;23.624;2024-03-02T04:39:03;94263.09;;;5.99;87.87
84671;BME280;74898;42.716;23.624;2024-03-02T04:41:28;94254.03;;;6.03;88.92
84671;BME280;74898;42.716;23.624;2024-03-02T04:43:54;94253.88;;;6.11;88.33
84671;BME280;74898;42.716;23.624;2024-03-02T04:46:19;94256.66;;;6.10;87.31
84671;BME280;74898;42.716;23.624;2024-03-02T04:48:45;94259.00;;;6.04;88.24
84671;BME280;74898;42.716;23.624;2024-03-02T04:51:10;94260.34;;;6.00;88.20
84671;BME280;74898;42.716;23.624;2024-03-02T04:53:36;94268.06;;;6.00;87.99
84671;BME280;74898;42.716;23.624;2024-03-02T04:56:02;94267.88;;;6.09;88.79
84671;BME280;74898;42.716;23.624;2024-03-02T04:58:36;94269.94;;;5.92;88.28
84671;BME280;74898;42.716;23.624;2024-03-02T05:01:01;94273.00;;;6.02;89.08
84671;BME280;74898;42.716;23.624;2024-03-02T05:03:27;94267.66;;;6.03;87.53
84671;BME280;74898;42.716;23.624;2024-03-02T05:05:52;94271.63;;;6.06;87.73
84671;BME280;74898;42.716;23.624;2024-03-02T05:08:18;94272.63;;;6.12;88.16
84671;BME280;74898;42.716;23.624;2024-03-02T05:10:43;94277.00;;;6.11;87.94
84671;BME280;74898;42.716;23.624;2024-03-02T05:13:09;94275.16;;;5.98;89.40
84671;BME280;74898;42.716;23.624;2024-03-02T05:15:34;94278.38;;;6.07;88.18
84671;BME280;74898;42.716;23.624;2024-03-02T05:18:00;94278.94;;;6.09;87.94
84671;BME280;74898;42.716;23.624;2024-03-02T05:20:28;94281.28;;;5.97;89.82
84671;BME280;74898;42.716;23.624;2024-03-02T05:22:53;94279.78;;;6.10;88.26
84671;BME280;74898;42.716;23.624;2024-03-02T05:25:19;94276.97;;;6.04;89.22
84671;BME280;74898;42.716;23.624;2024-03-02T05:27:44;94281.50;;;6.02;88.25
84671;BME280;74898;42.716;23.624;2024-03-02T05:30:11;94289.44;;;6.08;88.10
84671;BME280;74898;42.716;23.624;2024-03-02T05:32:37;94288.44;;;6.09;88.52
84671;BME280;74898;42.716;23.624;2024-03-02T05:35:03;94285.34;;;6.20;88.26
84671;BME280;74898;42.716;23.624;2024-03-02T05:37:30;94293.66;;;6.22;88.13
84671;BME280;74898;42.716;23.624;2024-03-02T05:39:55;94295.63;;;6.20;89.08
84671;BME280;74898;42.716;23.624;2024-03-02T05:42:21;94290.91;;;6.23;88.11
84671;BME280;74898;42.716;23.624;2024-03-02T05:44:47;94303.38;;;6.26;89.04
84671;BME280;74898;42.716;23.624;2024-03-02T05:47:13;94305.75;;;6.28;87.52
84671;BME280;74898;42.716;23.624;2024-03-02T05:49:41;94305.09;;;6.19;88.81
84671;BME280;74898;42.716;23.624;2024-03-02T05:52:06;94302.19;;;6.29;88.11
84671;BME280;74898;42.716;23.624;2024-03-02T05:54:32;94306.97;;;6.32;88.15
84671;BME280;74898;42.716;23.624;2024-03-02T05:56:57;94313.66;;;6.26;88.08
84671;BME280;74898;42.716;23.624;2024-03-02T05:59:41;94314.06;;;6.30;87.04
84671;BME280;74898;42.716;23.624;2024-03-02T06:02:07;94318.59;;;6.28;87.22
84671;BME280;74898;42.716;23.624;2024-03-02T06:04:32;94317.63;;;6.29;88.02
84671;BME280;74898;42.716;23.624;2024-03-02T06:06:58;94324.38;;;6.37;87.09
84671;BME280;74898;42.716;23.624;2024-03-02T06:09:23;94321.66;;;6.45;88.07
84671;BME280;74898;42.716;23.624;2024-03-02T06:11:49;94323.41;;;6.44;86.78
84671;BME280;74898;42.716;23.624;2024-03-02T06:14:15;94325.03;;;6.45;88.15
84671;BME280;74898;42.716;23.624;2024-03-02T06:16:40;94327.59;;;6.45;86.47
84671;BME280;74898;42.716;23.624;2024-03-02T06:19:06;94323.06;;;6.47;87.67
84671;BME280;74898;42.716;23.624;2024-03-02T06:21:32;94326.25;;;6.56;85.95
84671;BME280;74898;42.716;23.624;2024-03-02T06:23:57;94324.06;;;6.53;86.66
84671;BME280;74898;42.716;23.624;2024-03-02T06:26:23;94337.09;;;6.52;87.50
84671;BME280;74898;42.716;23.624;2024-03-02T06:28:48;94335.75;;;6.56;87.13
84671;BME280;74898;42.716;23.624;2024-03-02T06:31:14;94338.13;;;6.57;86.94
84671;BME280;74898;42.716;23.624;2024-03-02T06:33:39;94335.97;;;6.61;85.94
84671;BME280;74898;42.716;23.624;2024-03-02T06:36:07;94336.56;;;6.63;86.50
84671;BME280;74898;42.716;23.624;2024-03-02T06:38:37;94342.69;;;6.62;85.49
84671;BME280;74898;42.716;23.624;2024-03-02T06:41:02;94342.50;;;6.63;86.35
84671;BME280;74898;42.716;23.624;2024-03-02T06:43:28;94335.00;;;6.68;87.04
84671;BME280;74898;42.716;23.624;2024-03-02T06:45:53;94337.78;;;6.74;86.15
84671;BME280;74898;42.716;23.624;2024-03-02T06:48:19;94350.13;;;6.85;85.67
84671;BME280;74898;42.716;23.624;2024-03-02T06:50:49;94343.94;;;6.79;86.95
84671;BME280;74898;42.716;23.624;2024-03-02T06:53:16;94338.03;;;6.85;85.21
84671;BME280;74898;42.716;23.624;2024-03-02T06:55:45;94340.63;;;6.99;86.38
84671;BME280;74898;42.716;23.624;2024-03-02T06:58:11;94341.63;;;6.98;84.40
84671;BME280;74898;42.716;23.624;2024-03-02T07:00:37;94342.84;;;7.08;84.89
84671;BME280;74898;42.716;23.624;2024-03-02T07:03:03;94343.06;;;7.13;84.24
84671;BME280;74898;42.716;23.624;2024-03-02T07:05:29;94341.09;;;7.16;83.58
84671;BME280;74898;42.716;23.624;2024-03-02T07:07:54;94340.44;;;7.07;85.79
84671;BME280;74898;42.716;23.624;2024-03-02T07:10:20;94340.28;;;7.08;85.61
84671;BME280;74898;42.716;23.624;2024-03-02T07:12:45;94337.09;;;7.06;84.97
84671;BME280;74898;42.716;23.624;2024-03-02T07:15:11;94341.88;;;7.16;86.40
84671;BME280;74898;42.716;23.624;2024-03-02T07:17:49;94346.22;;;7.22;84.89
84671;BME280;74898;42.716;23.624;2024-03-02T07:20:14;94342.28;;;7.13;84.15
84671;BME280;74898;42.716;23.624;2024-03-02T07:22:40;94347.44;;;7.26;85.19
84671;BME280;74898;42.716;23.624;2024-03-02T07:25:06;94349.41;;;7.24;85.23
84671;BME280;74898;42.716;23.624;2024-03-02T07:27:32;94343.88;;;7.27;82.90
84671;BME280;74898;42.716;23.624;2024-03-02T07:29:59;94344.25;;;7.24;85.08
84671;BME280;74898;42.716;23.624;2024-03-02T07:32:24;94349.44;;;7.31;83.13
84671;BME280;74898;42.716;23.624;2024-03-02T07:34:50;94348.25;;;7.33;83.83
84671;BME280;74898;42.716;23.624;2024-03-02T07:37:19;94349.66;;;7.43;84.49
84671;BME280;74898;42.716;23.624;2024-03-02T07:39:45;94357.16;;;7.31;84.95
84671;BME280;74898;42.716;23.624;2024-03-02T07:42:11;94355.38;;;7.38;82.92
84671;BME280;74898;42.716;23.624;2024-03-02T07:44:36;94358.56;;;7.40;85.21
84671;BME280;74898;42.716;23.624;2024-03-02T07:47:02;94356.56;;;7.42;82.85
84671;BME280;74898;42.716;23.624;2024-03-02T07:49:28;94360.34;;;7.46;81.68
84671;BME280;74898;42.716;23.624;2024-03-02T07:51:54;94359.34;;;7.41;83.12
84671;BME280;74898;42.716;23.624;2024-03-02T07:54:19;94363.31;;;7.30;83.13
84671;BME280;74898;42.716;23.624;2024-03-02T07:56:45;94364.91;;;7.38;83.05
84671;BME280;74898;42.716;23.624;2024-03-02T07:59:12;94369.66;;;7.41;82.89
84671;BME280;74898;42.716;23.624;2024-03-02T08:01:37;94362.34;;;7.51;82.36
84671;BME280;74898;42.716;23.624;2024-03-02T08:04:03;94361.16;;;7.53;82.73
84671;BME280;74898;42.716;23.624;2024-03-02T08:06:29;94369.28;;;7.50;83.07
84671;BME280;74898;42.716;23.624;2024-03-02T08:08:56;94370.66;;;7.53;83.12
84671;BME280;74898;42.716;23.624;2024-03-02T08:11:23;94368.28;;;7.58;82.43
84671;BME280;74898;42.716;23.624;2024-03-02T08:13:49;94375.44;;;7.63;82.66
84671;BME280;74898;42.716;23.624;2024-03-02T08:16:18;94371.06;;;7.63;83.94
84671;BME280;74898;42.716;23.624;2024-03-02T08:18:50;94374.44;;;7.50;82.30
84671;BME280;74898;42.716;23.624;2024-03-02T08:21:16;94380.53;;;7.49;83.54
84671;BME280;74898;42.716;23.624;2024-03-02T08:23:42;94372.00;;;7.42;82.71
84671;BME280;74898;42.716;23.624;2024-03-02T08:26:09;94377.38;;;7.41;81.96
84671;BME280;74898;42.716;23.624;2024-03-02T08:28:35;94376.22;;;7.50;82.54
84671;BME280;74898;42.716;23.624;2024-03-02T08:31:06;94369.44;;;7.42;83.73
84671;BME280;74898;42.716;23.624;2024-03-02T08:33:31;94373.41;;;7.45;84.11
84671;BME280;74898;42.716;23.624;2024-03-02T08:35:57;94377.38;;;7.54;84.29
84671;BME280;74898;42.716;23.624;2024-03-02T08:38:22;94376.22;;;7.50;81.99
84671;BME280;74898;42.716;23.624;2024-03-02T08:40:49;94374.63;;;7.62;83.81
84671;BME280;74898;42.716;23.624;2024-03-02T08:43:15;94369.88;;;7.72;81.78
84671;BME280;74898;42.716;23.624;2024-03-02T08:45:40;94372.25;;;7.81;79.30
84671;BME280;74898;42.716;23.624;2024-03-02T08:48:09;94371.84;;;7.84;81.11
84671;BME280;74898;42.716;23.624;2024-03-02T08:50:35;94372.06;;;7.89;80.20
84671;BME280;74898;42.716;23.624;2024-03-02T08:53:01;94372.25;;;7.87;81.36
84671;BME280;74898;42.716;23.624;2024-03-02T08:55:27;94380.38;;;7.97;81.15
84671;BME280;74898;42.716;23.624;2024-03-02T08:57:53;94378.41;;;8.06;79.88
84671;BME280;74898;42.716;23.624;2024-03-02T09:00:18;94384.94;;;8.15;79.31
84671;BME280;74898;42.716;23.624;2024-03-02T09:02:44;94380.16;;;8.12;81.40
84671;BME280;74898;42.716;23.624;2024-03-02T09:05:10;94382.56;;;8.00;80.46
84671;BME280;74898;42.716;23.624;2024-03-02T09:07:36;94380.34;;;8.17;78.82
84671;BME280;74898;42.716;23.624;2024-03-02T09:10:05;94373.81;;;8.15;80.83
84671;BME280;74898;42.716;23.624;2024-03-02T09:12:31;94380.94;;;8.19;80.27
84671;BME280;74898;42.716;23.624;2024-03-02T09:14:57;94384.13;;;8.15;81.85
84671;BME280;74898;42.716;23.624;2024-03-02T09:17:23;94390.28;;;8.20;80.90
84671;BME280;74898;42.716;23.624;2024-03-02T09:19:48;94386.09;;;8.26;79.37
84671;BME280;74898;42.716;23.624;2024-03-02T09:22:17;94383.91;;;8.30;80.28
84671;BME280;74898;42.716;23.624;2024-03-02T09:24:43;94392.66;;;8.22;78.17
84671;BME280;74898;42.716;23.624;2024-03-02T09:27:08;94383.56;;;8.06;81.20
84671;BME280;74898;42.716;23.624;2024-03-02T09:29:34;94383.53;;;7.99;79.96
84671;BME280;74898;42.716;23.624;2024-03-02T09:31:59;94390.31;;;8.00;79.19
84671;BME280;74898;42.716;23.624;2024-03-02T09:34:24;94388.53;;;8.08;80.72
84671;BME280;74898;42.716;23.624;2024-03-02T09:36:51;94392.47;;;8.10;79.75
84671;BME280;74898;42.716;23.624;2024-03-02T09:39:17;94396.06;;;8.03;78.98
84671;BME280;74898;42.716;23.624;2024-03-02T09:41:43;94390.09;;;8.15;79.05
84671;BME280;74898;42.716;23.624;2024-03-02T09:44:09;94389.47;;;8.20;79.62
84671;BME280;74898;42.716;23.624;2024-03-02T09:46:35;94389.09;;;8.16;79.01
84671;BME280;74898;42.716;23.624;2024-03-02T09:49:02;94388.09;;;8.04;80.46
84671;BME280;74898;42.716;23.624;2024-03-02T09:51:28;94392.47;;;8.23;80.61
84671;BME280;74898;42.716;23.624;2024-03-02T09:53:55;94392.84;;;8.27;78.92
84671;BME280;74898;42.716;23.624;2024-03-02T09:56:23;94395.63;;;8.19;78.36
84671;BME280;74898;42.716;23.624;2024-03-02T09:58:48;94391.69;;;8.16;79.60
84671;BME280;74898;42.716;23.624;2024-03-02T10:01:15;94393.25;;;8.17;81.42
84671;BME280;74898;42.716;23.624;2024-03-02T10:03:41;94403.56;;;8.04;78.40
84671;BME280;74898;42.716;23.624;2024-03-02T10:06:23;94392.88;;;8.00;80.59
84671;BME280;74898;42.716;23.624;2024-03-02T10:08:49;94395.25;;;7.95;78.82
84671;BME280;74898;42.716;23.624;2024-03-02T10:11:29;94392.88;;;7.87;80.01
84671;BME280;74898;42.716;23.624;2024-03-02T10:14:13;94395.63;;;7.92;81.10
84671;BME280;74898;42.716;23.624;2024-03-02T10:16:40;94393.69;;;7.88;80.60
84671;BME280;74898;42.716;23.624;2024-03-02T10:19:23;94392.88;;;7.94;79.93
84671;BME280;74898;42.716;23.624;2024-03-02T10:21:49;94391.50;;;7.98;80.91
84671;BME280;74898;42.716;23.624;2024-03-02T10:24:16;94392.69;;;7.95;80.29
84671;BME280;74898;42.716;23.624;2024-03-02T10:26:42;94393.47;;;7.96;81.33
84671;BME280;74898;42.716;23.624;2024-03-02T10:29:11;94395.03;;;7.97;81.52
84671;BME280;74898;42.716;23.624;2024-03-02T10:31:38;94390.50;;;7.99;80.54
84671;BME280;74898;42.716;23.624;2024-03-02T10:34:03;94388.91;;;7.98;81.55
84671;BME280;74898;42.716;23.624;2024-03-02T10:36:29;94386.72;;;8.08;81.52
84671;BME280;74898;42.716;23.624;2024-03-02T10:38:58;94392.25;;;8.12;82.37
84671;BME280;74898;42.716;23.624;2024-03-02T10:41:26;94394.25;;;7.96;80.12
84671;BME280;74898;42.716;23.624;2024-03-02T10:43:56;94385.53;;;7.97;81.35
84671;BME280;74898;42.716;23.624;2024-03-02T10:46:31;94390.91;;;8.03;81.08
84671;BME280;74898;42.716;23.624;2024-03-02T10:48:58;94390.69;;;8.11;81.64
84671;BME280;74898;42.716;23.624;2024-03-02T10:51:29;94384.72;;;8.17;80.97
84671;BME280;74898;42.716;23.624;2024-03-02T10:54:00;94379.94;;;8.27;80.57
84671;BME280;74898;42.716;23.624;2024-03-02T10:56:39;94381.97;;;8.25;81.65
84671;BME280;74898;42.716;23.624;2024-03-02T10:59:17;94373.03;;;8.28;79.28
84671;BME280;74898;42.716;23.624;2024-03-02T11:01:47;94377.19;;;8.29;79.59
84671;BME280;74898;42.716;23.624;2024-03-02T11:04:13;94377.16;;;8.42;81.17
84671;BME280;74898;42.716;23.624;2024-03-02T11:06:46;94372.38;;;8.59;80.76
84671;BME280;74898;42.716;23.624;2024-03-02T11:09:14;94365.75;;;8.76;80.48
84671;BME280;74898;42.716;23.624;2024-03-02T11:11:43;94366.38;;;8.65;80.15
84671;BME280;74898;42.716;23.624;2024-03-02T11:14:14;94360.78;;;8.81;80.41
84671;BME280;74898;42.716;23.624;2024-03-02T11:16:42;94365.81;;;8.63;78.52
84671;BME280;74898;42.716;23.624;2024-03-02T11:19:11;94359.34;;;8.92;79.55
84671;BME280;74898;42.716;23.624;2024-03-02T11:21:37;94359.06;;;9.14;79.28
84671;BME280;74898;42.716;23.624;2024-03-02T11:26:47;94362.16;;;8.91;77.25
84671;BME280;74898;42.716;23.624;2024-03-02T11:32:01;94358.88;;;9.40;77.17
84671;BME280;74898;42.716;23.624;2024-03-02T11:34:34;94360.56;;;9.60;76.40
84671;BME280;74898;42.716;23.624;2024-03-02T11:37:03;94351.50;;;9.50;76.44
84671;BME280;74898;42.716;23.624;2024-03-02T11:39:30;94356.91;;;9.67;77.11
84671;BME280;74898;42.716;23.624;2024-03-02T11:41:59;94356.91;;;9.67;77.77
84671;BME280;74898;42.716;23.624;2024-03-02T11:44:27;94349.72;;;9.76;74.64
84671;BME280;74898;42.716;23.624;2024-03-02T11:49:50;94351.50;;;9.76;75.66
84671;BME280;74898;42.716;23.624;2024-03-02T11:52:20;94344.06;;;9.29;76.20
84671;BME280;74898;42.716;23.624;2024-03-02T11:54:47;94347.88;;;9.51;76.58
84671;BME280;74898;42.716;23.624;2024-03-02T11:57:15;94344.53;;;9.76;75.84
84671;BME280;74898;42.716;23.624;2024-03-02T11:59:41;94347.47;;;9.55;74.86
84671;BME280;74898;42.716;23.624;2024-03-02T12:02:14;94345.78;;;9.67;76.26
84671;BME280;74898;42.716;23.624;2024-03-02T12:04:41;94346.47;;;10.06;76.92
84671;BME280;74898;42.716;23.624;2024-03-02T12:07:08;94349.88;;;10.25;73.10
84671;BME280;74898;42.716;23.624;2024-03-02T12:09:34;94348.94;;;10.19;73.41
84671;BME280;74898;42.716;23.624;2024-03-02T12:14:34;94343.31;;;10.47;73.00
84671;BME280;74898;42.716;23.624;2024-03-02T12:16:59;94350.56;;;10.57;73.11
84671;BME280;74898;42.716;23.624;2024-03-02T12:19:26;94350.34;;;10.40;71.80
84671;BME280;74898;42.716;23.624;2024-03-02T12:21:53;94345.75;;;10.17;73.39
84671;BME280;74898;42.716;23.624;2024-03-02T12:24:20;94358.03;;;10.28;73.41
84671;BME280;74898;42.716;23.624;2024-03-02T12:26:46;94345.47;;;10.32;73.38
84671;BME280;74898;42.716;23.624;2024-03-02T12:29:13;94345.47;;;10.32;73.34
84671;BME280;74898;42.716;23.624;2024-03-02T12:31:40;94345.25;;;10.33;73.61
84671;BME280;74898;42.716;23.624;2024-03-02T12:34:07;94347.41;;;10.36;73.52
84671;BME280;74898;42.716;23.624;2024-03-02T12:36:39;94345.09;;;10.47;72.32
84671;BME280;74898;42.716;23.624;2024-03-02T12:39:04;94343.31;;;10.29;72.41
84671;BME280;74898;42.716;23.624;2024-03-02T12:41:30;94342.28;;;10.30;73.15
84671;BME280;74898;42.716;23.624;2024-03-02T12:43:56;94348.97;;;10.37;70.20
84671;BME280;74898;42.716;23.624;2024-03-02T12:46:21;94341.84;;;10.33;69.80
84671;BME280;74898;42.716;23.624;2024-03-02T12:48:47;94348.53;;;10.41;70.97
84671;BME280;74898;42.716;23.624;2024-03-02T12:51:13;94346.88;;;10.28;70.41
84671;BME280;74898;42.716;23.624;2024-03-02T12:53:39;94348.31;;;10.24;72.37
84671;BME280;74898;42.716;23.624;2024-03-02T12:56:05;94350.56;;;10.38;71.44
84671;BME280;74898;42.716;23.624;2024-03-02T12:58:39;94351.47;;;10.26;72.39
84671;BME280;74898;42.716;23.624;2024-03-02T13:01:08;94350.06;;;10.30;72.98
84671;BME280;74898;42.716;23.624;2024-03-02T13:03:38;94351.41;;;10.32;71.87
84671;BME280;74898;42.716;23.624;2024-03-02T13:06:05;94345.13;;;10.22;72.62
84671;BME280;74898;42.716;23.624;2024-03-02T13:08:32;94347.25;;;10.31;71.95
84671;BME280;74898;42.716;23.624;2024-03-02T13:10:58;94346.63;;;10.36;71.67